sensor_id;sensor_type;location;lat;lon;timestamp;P1;durP1;ratioP1;P2;durP2;ratioP2
84946;SDS011;75241;51.692;5.196;2024-02-26T00:00:30;3.78;;;2.75;;
84946;SDS011;75241;51.692;5.196;2024-02-26T00:02:56;4.38;;;3.08;;
84946;SDS011;75241;51.692;5.196;2024-02-26T00:05:21;5.63;;;3.40;;
84946;SDS011;75241;51.692;5.196;2024-02-26T00:07:47;6.45;;;3.17;;
84946;SDS011;75241;51.692;5.196;2024-02-26T00:10:13;4.78;;;3.33;;
84946;SDS011;75241;51.692;5.196;2024-02-26T00:12:39;4.97;;;3.38;;
84946;SDS011;75241;51.692;5.196;2024-02-26T00:15:05;5.10;;;2.92;;
84946;SDS011;75241;51.692;5.196;2024-02-26T00:17:31;5.13;;;3.08;;
84946;SDS011;75241;51.692;5.196;2024-02-26T00:19:57;6.55;;;2.83;;
84946;SDS011;75241;51.692;5.196;2024-02-26T00:22:22;3.47;;;3.03;;
84946;SDS011;75241;51.692;5.196;2024-02-26T00:24:48;4.70;;;2.92;;
84946;SDS011;75241;51.692;5.196;2024-02-26T00:27:13;5.15;;;3.28;;
84946;SDS011;75241;51.692;5.196;2024-02-26T00:29:39;4.10;;;2.78;;
84946;SDS011;75241;51.692;5.196;2024-02-26T00:32:04;4.20;;;3.45;;
84946;SDS011;75241;51.692;5.196;2024-02-26T00:34:30;3.63;;;2.97;;
84946;SDS011;75241;51.692;5.196;2024-02-26T00:36:56;4.28;;;3.25;;
84946;SDS011;75241;51.692;5.196;2024-02-26T00:39:21;4.35;;;3.67;;
84946;SDS011;75241;51.692;5.196;2024-02-26T00:41:46;6.28;;;3.47;;
84946;SDS011;75241;51.692;5.196;2024-02-26T00:44:12;5.25;;;3.45;;
84946;SDS011;75241;51.692;5.196;2024-02-26T00:46:38;4.53;;;3.28;;
84946;SDS011;75241;51.692;5.196;2024-02-26T00:49:03;3.55;;;2.70;;
84946;SDS011;75241;51.692;5.196;2024-02-26T00:51:28;4.10;;;3.33;;
84946;SDS011;75241;51.692;5.196;2024-02-26T00:53:54;4.63;;;3.28;;
84946;SDS011;75241;51.692;5.196;2024-02-26T00:56:20;4.53;;;3.53;;
84946;SDS011;75241;51.692;5.196;2024-02-26T00:58:46;4.63;;;3.33;;
84946;SDS011;75241;51.692;5.196;2024-02-26T01:01:12;4.80;;;3.35;;
84946;SDS011;75241;51.692;5.196;2024-02-26T01:03:37;4.88;;;3.10;;
84946;SDS011;75241;51.692;5.196;2024-02-26T01:06:03;4.75;;;3.75;;
84946;SDS011;75241;51.692;5.196;2024-02-26T01:08:28;3.75;;;2.97;;
84946;SDS011;75241;51.692;5.196;2024-02-26T01:10:54;5.00;;;3.03;;
84946;SDS011;75241;51.692;5.196;2024-02-26T01:13:19;3.45;;;3.15;;
84946;SDS011;75241;51.692;5.196;2024-02-26T01:15:45;4.28;;;3.20;;
84946;SDS011;75241;51.692;5.196;2024-02-26T01:18:10;3.83;;;3.28;;
84946;SDS011;75241;51.692;5.196;2024-02-26T01:20:37;5.05;;;3.22;;
84946;SDS011;75241;51.692;5.196;2024-02-26T01:23:02;4.95;;;3.78;;
84946;SDS011;75241;51.692;5.196;2024-02-26T01:25:28;5.78;;;2.92;;
84946;SDS011;75241;51.692;5.196;2024-02-26T01:27:53;4.80;;;3.38;;
84946;SDS011;75241;51.692;5.196;2024-02-26T01:30:19;3.85;;;3.20;;
84946;SDS011;75241;51.692;5.196;2024-02-26T01:32:45;4.15;;;3.67;;
84946;SDS011;75241;51.692;5.196;2024-02-26T01:35:10;3.92;;;3.45;;
84946;SDS011;75241;51.692;5.196;2024-02-26T01:37:37;5.05;;;3.88;;
84946;SDS011;75241;51.692;5.196;2024-02-26T01:40:03;4.53;;;3.58;;
84946;SDS011;75241;51.692;5.196;2024-02-26T01:42:29;4.80;;;3.65;;
84946;SDS011;75241;51.692;5.196;2024-02-26T01:44:57;6.20;;;3.50;;
84946;SDS011;75241;51.692;5.196;2024-02-26T01:47:23;5.82;;;3.53;;
84946;SDS011;75241;51.692;5.196;2024-02-26T01:49:48;5.18;;;3.92;;
84946;SDS011;75241;51.692;5.196;2024-02-26T01:52:14;6.72;;;4.15;;
84946;SDS011;75241;51.692;5.196;2024-02-26T01:54:40;5.78;;;3.60;;
84946;SDS011;75241;51.692;5.196;2024-02-26T01:57:09;6.68;;;4.30;;
84946;SDS011;75241;51.692;5.196;2024-02-26T01:59:35;4.88;;;3.88;;
84946;SDS011;75241;51.692;5.196;2024-02-26T02:02:01;5.78;;;4.30;;
84946;SDS011;75241;51.692;5.196;2024-02-26T02:04:30;4.10;;;3.45;;
84946;SDS011;75241;51.692;5.196;2024-02-26T02:06:56;6.35;;;4.53;;
84946;SDS011;75241;51.692;5.196;2024-02-26T02:09:23;5.13;;;3.80;;
84946;SDS011;75241;51.692;5.196;2024-02-26T02:11:48;5.55;;;4.47;;
84946;SDS011;75241;51.692;5.196;2024-02-26T02:14:14;6.07;;;4.60;;
84946;SDS011;75241;51.692;5.196;2024-02-26T02:16:40;6.97;;;4.60;;
84946;SDS011;75241;51.692;5.196;2024-02-26T02:19:05;6.75;;;4.72;;
84946;SDS011;75241;51.692;5.196;2024-02-26T02:21:31;6.75;;;5.25;;
84946;SDS011;75241;51.692;5.196;2024-02-26T02:23:56;7.45;;;5.60;;
84946;SDS011;75241;51.692;5.196;2024-02-26T02:26:22;6.03;;;4.95;;
84946;SDS011;75241;51.692;5.196;2024-02-26T02:28:47;7.10;;;5.72;;
84946;SDS011;75241;51.692;5.196;2024-02-26T02:31:14;7.63;;;5.40;;
84946;SDS011;75241;51.692;5.196;2024-02-26T02:33:40;7.55;;;5.88;;
84946;SDS011;75241;51.692;5.196;2024-02-26T02:36:06;8.02;;;5.80;;
84946;SDS011;75241;51.692;5.196;2024-02-26T02:38:35;8.27;;;5.28;;
84946;SDS011;75241;51.692;5.196;2024-02-26T02:41:01;8.10;;;5.68;;
84946;SDS011;75241;51.692;5.196;2024-02-26T02:43:26;6.75;;;5.35;;
84946;SDS011;75241;51.692;5.196;2024-02-26T02:45:52;6.65;;;5.00;;
84946;SDS011;75241;51.692;5.196;2024-02-26T02:48:17;7.60;;;5.20;;
84946;SDS011;75241;51.692;5.196;2024-02-26T02:50:43;7.22;;;5.45;;
84946;SDS011;75241;51.692;5.196;2024-02-26T02:53:08;5.63;;;5.00;;
84946;SDS011;75241;51.692;5.196;2024-02-26T02:55:33;7.70;;;5.80;;
84946;SDS011;75241;51.692;5.196;2024-02-26T02:57:59;6.05;;;5.32;;
84946;SDS011;75241;51.692;5.196;2024-02-26T03:00:24;6.10;;;5.13;;
84946;SDS011;75241;51.692;5.196;2024-02-26T03:02:50;7.22;;;5.32;;
84946;SDS011;75241;51.692;5.196;2024-02-26T03:05:15;8.48;;;5.68;;
84946;SDS011;75241;51.692;5.196;2024-02-26T03:07:41;7.22;;;5.03;;
84946;SDS011;75241;51.692;5.196;2024-02-26T03:10:06;6.18;;;4.80;;
84946;SDS011;75241;51.692;5.196;2024-02-26T03:12:33;7.50;;;5.03;;
84946;SDS011;75241;51.692;5.196;2024-02-26T03:14:59;6.03;;;4.93;;
84946;SDS011;75241;51.692;5.196;2024-02-26T03:17:27;6.88;;;5.55;;
84946;SDS011;75241;51.692;5.196;2024-02-26T03:19:55;6.18;;;4.63;;
84946;SDS011;75241;51.692;5.196;2024-02-26T03:22:21;7.28;;;5.10;;
84946;SDS011;75241;51.692;5.196;2024-02-26T03:24:47;8.23;;;6.07;;
84946;SDS011;75241;51.692;5.196;2024-02-26T03:27:13;11.10;;;6.25;;
84946;SDS011;75241;51.692;5.196;2024-02-26T03:29:39;8.88;;;6.18;;
84946;SDS011;75241;51.692;5.196;2024-02-26T03:32:05;7.45;;;5.65;;
84946;SDS011;75241;51.692;5.196;2024-02-26T03:34:34;8.23;;;6.03;;
84946;SDS011;75241;51.692;5.196;2024-02-26T03:37:00;8.63;;;5.95;;
84946;SDS011;75241;51.692;5.196;2024-02-26T03:39:26;8.13;;;5.97;;
84946;SDS011;75241;51.692;5.196;2024-02-26T03:41:51;10.82;;;6.43;;
84946;SDS011;75241;51.692;5.196;2024-02-26T03:44:17;9.73;;;6.38;;
84946;SDS011;75241;51.692;5.196;2024-02-26T03:46:42;8.10;;;6.15;;
84946;SDS011;75241;51.692;5.196;2024-02-26T03:49:08;9.98;;;6.28;;
84946;SDS011;75241;51.692;5.196;2024-02-26T03:51:34;8.73;;;6.38;;
84946;SDS011;75241;51.692;5.196;2024-02-26T03:53:59;7.47;;;6.30;;
84946;SDS011;75241;51.692;5.196;2024-02-26T03:56:25;7.07;;;5.93;;
84946;SDS011;75241;51.692;5.196;2024-02-26T03:58:52;9.57;;;7.15;;
84946;SDS011;75241;51.692;5.196;2024-02-26T04:01:17;8.43;;;6.43;;
84946;SDS011;75241;51.692;5.196;2024-02-26T04:03:43;9.95;;;6.18;;
84946;SDS011;75241;51.692;5.196;2024-02-26T04:06:09;8.27;;;6.22;;
84946;SDS011;75241;51.692;5.196;2024-02-26T04:08:43;8.18;;;5.95;;
84946;SDS011;75241;51.692;5.196;2024-02-26T04:11:08;8.95;;;6.65;;
84946;SDS011;75241;51.692;5.196;2024-02-26T04:13:34;9.43;;;6.72;;
84946;SDS011;75241;51.692;5.196;2024-02-26T04:16:00;8.73;;;6.20;;
84946;SDS011;75241;51.692;5.196;2024-02-26T04:18:28;7.80;;;6.35;;
84946;SDS011;75241;51.692;5.196;2024-02-26T04:20:54;7.68;;;6.60;;
84946;SDS011;75241;51.692;5.196;2024-02-26T04:23:19;8.70;;;6.30;;
84946;SDS011;75241;51.692;5.196;2024-02-26T04:25:45;8.15;;;5.80;;
84946;SDS011;75241;51.692;5.196;2024-02-26T04:28:10;7.15;;;6.00;;
84946;SDS011;75241;51.692;5.196;2024-02-26T04:30:36;7.80;;;5.70;;
84946;SDS011;75241;51.692;5.196;2024-02-26T04:33:02;8.63;;;5.68;;
84946;SDS011;75241;51.692;5.196;2024-02-26T04:35:27;8.07;;;5.78;;
84946;SDS011;75241;51.692;5.196;2024-02-26T04:37:53;6.97;;;5.30;;
84946;SDS011;75241;51.692;5.196;2024-02-26T04:40:18;8.25;;;5.78;;
84946;SDS011;75241;51.692;5.196;2024-02-26T04:42:43;6.57;;;5.15;;
84946;SDS011;75241;51.692;5.196;2024-02-26T04:45:09;6.43;;;5.32;;
84946;SDS011;75241;51.692;5.196;2024-02-26T04:47:34;5.95;;;5.22;;
84946;SDS011;75241;51.692;5.196;2024-02-26T04:50:00;8.10;;;4.82;;
84946;SDS011;75241;51.692;5.196;2024-02-26T04:52:25;7.65;;;5.70;;
84946;SDS011;75241;51.692;5.196;2024-02-26T04:54:51;6.65;;;4.65;;
84946;SDS011;75241;51.692;5.196;2024-02-26T04:57:16;6.75;;;5.32;;
84946;SDS011;75241;51.692;5.196;2024-02-26T04:59:43;6.80;;;6.03;;
84946;SDS011;75241;51.692;5.196;2024-02-26T05:02:10;10.23;;;5.82;;
84946;SDS011;75241;51.692;5.196;2024-02-26T05:04:36;9.48;;;5.18;;
84946;SDS011;75241;51.692;5.196;2024-02-26T05:07:02;6.18;;;5.13;;
84946;SDS011;75241;51.692;5.196;2024-02-26T05:09:27;6.25;;;4.97;;
84946;SDS011;75241;51.692;5.196;2024-02-26T05:11:52;7.97;;;5.75;;
84946;SDS011;75241;51.692;5.196;2024-02-26T05:14:18;6.60;;;4.88;;
84946;SDS011;75241;51.692;5.196;2024-02-26T05:16:43;8.07;;;5.70;;
84946;SDS011;75241;51.692;5.196;2024-02-26T05:19:09;6.55;;;5.28;;
84946;SDS011;75241;51.692;5.196;2024-02-26T05:21:34;8.43;;;6.07;;
84946;SDS011;75241;51.692;5.196;2024-02-26T05:23:59;9.35;;;6.28;;
84946;SDS011;75241;51.692;5.196;2024-02-26T05:26:25;8.90;;;6.28;;
84946;SDS011;75241;51.692;5.196;2024-02-26T05:28:51;7.80;;;6.35;;
84946;SDS011;75241;51.692;5.196;2024-02-26T05:31:17;8.88;;;6.25;;
84946;SDS011;75241;51.692;5.196;2024-02-26T05:33:43;8.73;;;5.72;;
84946;SDS011;75241;51.692;5.196;2024-02-26T05:36:09;8.85;;;6.10;;
84946;SDS011;75241;51.692;5.196;2024-02-26T05:38:34;12.63;;;7.00;;
84946;SDS011;75241;51.692;5.196;2024-02-26T05:41:00;7.80;;;5.95;;
84946;SDS011;75241;51.692;5.196;2024-02-26T05:43:26;10.35;;;6.72;;
84946;SDS011;75241;51.692;5.196;2024-02-26T05:45:52;9.48;;;6.40;;
84946;SDS011;75241;51.692;5.196;2024-02-26T05:48:18;10.98;;;6.57;;
84946;SDS011;75241;51.692;5.196;2024-02-26T05:50:44;8.70;;;6.05;;
84946;SDS011;75241;51.692;5.196;2024-02-26T05:53:10;9.40;;;6.07;;
84946;SDS011;75241;51.692;5.196;2024-02-26T05:55:36;8.32;;;6.47;;
84946;SDS011;75241;51.692;5.196;2024-02-26T05:58:02;11.45;;;6.82;;
84946;SDS011;75241;51.692;5.196;2024-02-26T06:00:28;11.05;;;7.35;;
84946;SDS011;75241;51.692;5.196;2024-02-26T06:02:53;9.20;;;6.70;;
84946;SDS011;75241;51.692;5.196;2024-02-26T06:05:19;11.18;;;7.63;;
84946;SDS011;75241;51.692;5.196;2024-02-26T06:07:44;11.95;;;7.90;;
84946;SDS011;75241;51.692;5.196;2024-02-26T06:10:10;13.27;;;7.25;;
84946;SDS011;75241;51.692;5.196;2024-02-26T06:12:35;11.65;;;7.95;;
84946;SDS011;75241;51.692;5.196;2024-02-26T06:15:01;9.05;;;6.85;;
84946;SDS011;75241;51.692;5.196;2024-02-26T06:17:27;9.95;;;7.82;;
84946;SDS011;75241;51.692;5.196;2024-02-26T06:19:53;12.90;;;7.70;;
84946;SDS011;75241;51.692;5.196;2024-02-26T06:22:19;10.98;;;6.60;;
84946;SDS011;75241;51.692;5.196;2024-02-26T06:24:44;11.85;;;7.28;;
84946;SDS011;75241;51.692;5.196;2024-02-26T06:27:09;10.73;;;7.70;;
84946;SDS011;75241;51.692;5.196;2024-02-26T06:29:35;8.95;;;7.50;;
84946;SDS011;75241;51.692;5.196;2024-02-26T06:32:00;9.20;;;6.30;;
84946;SDS011;75241;51.692;5.196;2024-02-26T06:34:25;10.63;;;7.25;;
84946;SDS011;75241;51.692;5.196;2024-02-26T06:36:51;10.68;;;6.88;;
84946;SDS011;75241;51.692;5.196;2024-02-26T06:39:16;10.10;;;7.00;;
84946;SDS011;75241;51.692;5.196;2024-02-26T06:41:42;11.15;;;7.32;;
84946;SDS011;75241;51.692;5.196;2024-02-26T06:44:08;8.93;;;6.75;;
84946;SDS011;75241;51.692;5.196;2024-02-26T06:46:34;10.07;;;6.97;;
84946;SDS011;75241;51.692;5.196;2024-02-26T06:48:59;10.07;;;7.28;;
84946;SDS011;75241;51.692;5.196;2024-02-26T06:51:25;10.77;;;7.32;;
84946;SDS011;75241;51.692;5.196;2024-02-26T06:53:50;9.70;;;7.13;;
84946;SDS011;75241;51.692;5.196;2024-02-26T06:56:16;11.52;;;7.50;;
84946;SDS011;75241;51.692;5.196;2024-02-26T06:58:41;11.52;;;8.02;;
84946;SDS011;75241;51.692;5.196;2024-02-26T07:01:06;12.07;;;7.13;;
84946;SDS011;75241;51.692;5.196;2024-02-26T07:03:33;11.00;;;7.85;;
84946;SDS011;75241;51.692;5.196;2024-02-26T07:05:59;10.30;;;8.02;;
84946;SDS011;75241;51.692;5.196;2024-02-26T07:08:24;11.38;;;7.72;;
84946;SDS011;75241;51.692;5.196;2024-02-26T07:10:50;10.73;;;8.02;;
84946;SDS011;75241;51.692;5.196;2024-02-26T07:13:15;10.70;;;7.32;;
84946;SDS011;75241;51.692;5.196;2024-02-26T07:15:40;10.15;;;7.25;;
84946;SDS011;75241;51.692;5.196;2024-02-26T07:18:06;11.73;;;7.95;;
84946;SDS011;75241;51.692;5.196;2024-02-26T07:20:31;11.20;;;7.93;;
84946;SDS011;75241;51.692;5.196;2024-02-26T07:22:57;10.90;;;7.85;;
84946;SDS011;75241;51.692;5.196;2024-02-26T07:25:22;11.10;;;8.35;;
84946;SDS011;75241;51.692;5.196;2024-02-26T07:27:49;11.50;;;9.32;;
84946;SDS011;75241;51.692;5.196;2024-02-26T07:30:17;10.15;;;7.78;;
84946;SDS011;75241;51.692;5.196;2024-02-26T07:32:42;10.82;;;7.18;;
84946;SDS011;75241;51.692;5.196;2024-02-26T07:35:09;11.00;;;7.78;;
84946;SDS011;75241;51.692;5.196;2024-02-26T07:37:35;10.77;;;7.82;;
84946;SDS011;75241;51.692;5.196;2024-02-26T07:40:00;9.73;;;7.38;;
84946;SDS011;75241;51.692;5.196;2024-02-26T07:42:26;12.90;;;7.60;;
84946;SDS011;75241;51.692;5.196;2024-02-26T07:44:51;12.35;;;7.97;;
84946;SDS011;75241;51.692;5.196;2024-02-26T07:47:17;11.93;;;8.20;;
84946;SDS011;75241;51.692;5.196;2024-02-26T07:49:43;12.95;;;7.72;;
84946;SDS011;75241;51.692;5.196;2024-02-26T07:52:09;10.30;;;7.55;;
84946;SDS011;75241;51.692;5.196;2024-02-26T07:54:35;11.35;;;8.23;;
84946;SDS011;75241;51.692;5.196;2024-02-26T07:57:00;15.10;;;9.13;;
84946;SDS011;75241;51.692;5.196;2024-02-26T07:59:27;10.30;;;7.72;;
84946;SDS011;75241;51.692;5.196;2024-02-26T08:01:52;14.10;;;8.55;;
84946;SDS011;75241;51.692;5.196;2024-02-26T08:04:18;12.93;;;9.45;;
84946;SDS011;75241;51.692;5.196;2024-02-26T08:06:43;13.27;;;8.60;;
84946;SDS011;75241;51.692;5.196;2024-02-26T08:09:09;13.93;;;8.48;;
84946;SDS011;75241;51.692;5.196;2024-02-26T08:11:34;10.75;;;7.70;;
84946;SDS011;75241;51.692;5.196;2024-02-26T08:14:00;11.60;;;8.95;;
84946;SDS011;75241;51.692;5.196;2024-02-26T08:16:25;12.07;;;7.78;;
84946;SDS011;75241;51.692;5.196;2024-02-26T08:18:51;12.88;;;9.27;;
84946;SDS011;75241;51.692;5.196;2024-02-26T08:21:16;14.68;;;9.90;;
84946;SDS011;75241;51.692;5.196;2024-02-26T08:23:43;17.23;;;10.20;;
84946;SDS011;75241;51.692;5.196;2024-02-26T08:28:36;17.85;;;10.55;;
84946;SDS011;75241;51.692;5.196;2024-02-26T08:31:02;17.83;;;10.50;;
84946;SDS011;75241;51.692;5.196;2024-02-26T08:33:28;15.20;;;10.25;;
84946;SDS011;75241;51.692;5.196;2024-02-26T08:35:53;17.17;;;11.40;;
84946;SDS011;75241;51.692;5.196;2024-02-26T08:38:19;19.70;;;12.30;;
84946;SDS011;75241;51.692;5.196;2024-02-26T08:40:44;18.00;;;11.38;;
84946;SDS011;75241;51.692;5.196;2024-02-26T08:43:10;20.95;;;11.73;;
84946;SDS011;75241;51.692;5.196;2024-02-26T08:45:35;17.65;;;11.05;;
84946;SDS011;75241;51.692;5.196;2024-02-26T08:48:00;18.27;;;11.25;;
84946;SDS011;75241;51.692;5.196;2024-02-26T08:50:26;21.85;;;12.00;;
84946;SDS011;75241;51.692;5.196;2024-02-26T08:52:52;18.83;;;11.48;;
84946;SDS011;75241;51.692;5.196;2024-02-26T08:55:18;22.02;;;12.80;;
84946;SDS011;75241;51.692;5.196;2024-02-26T08:57:43;20.05;;;12.30;;
84946;SDS011;75241;51.692;5.196;2024-02-26T09:00:09;22.35;;;12.63;;
84946;SDS011;75241;51.692;5.196;2024-02-26T09:02:35;20.02;;;12.15;;
84946;SDS011;75241;51.692;5.196;2024-02-26T09:05:03;21.02;;;11.48;;
84946;SDS011;75241;51.692;5.196;2024-02-26T09:09:55;16.08;;;9.93;;
84946;SDS011;75241;51.692;5.196;2024-02-26T09:12:21;19.52;;;10.60;;
84946;SDS011;75241;51.692;5.196;2024-02-26T09:14:47;20.08;;;10.57;;
84946;SDS011;75241;51.692;5.196;2024-02-26T09:17:12;17.83;;;10.68;;
84946;SDS011;75241;51.692;5.196;2024-02-26T09:19:38;19.92;;;10.75;;
84946;SDS011;75241;51.692;5.196;2024-02-26T09:22:03;22.73;;;11.50;;
84946;SDS011;75241;51.692;5.196;2024-02-26T09:24:29;20.25;;;11.20;;
84946;SDS011;75241;51.692;5.196;2024-02-26T09:26:54;18.58;;;10.48;;
84946;SDS011;75241;51.692;5.196;2024-02-26T09:29:20;17.98;;;10.95;;
84946;SDS011;75241;51.692;5.196;2024-02-26T09:31:45;17.17;;;10.98;;
84946;SDS011;75241;51.692;5.196;2024-02-26T09:34:12;17.85;;;10.23;;
84946;SDS011;75241;51.692;5.196;2024-02-26T09:36:38;22.27;;;11.18;;
84946;SDS011;75241;51.692;5.196;2024-02-26T09:39:04;21.45;;;11.60;;
84946;SDS011;75241;51.692;5.196;2024-02-26T09:41:30;24.63;;;12.85;;
84946;SDS011;75241;51.692;5.196;2024-02-26T09:43:56;22.38;;;11.50;;
84946;SDS011;75241;51.692;5.196;2024-02-26T09:46:25;22.20;;;12.23;;
84946;SDS011;75241;51.692;5.196;2024-02-26T09:48:51;21.40;;;12.52;;
84946;SDS011;75241;51.692;5.196;2024-02-26T09:51:17;29.00;;;12.95;;
84946;SDS011;75241;51.692;5.196;2024-02-26T09:53:44;24.60;;;12.10;;
84946;SDS011;75241;51.692;5.196;2024-02-26T09:56:12;25.48;;;12.75;;
84946;SDS011;75241;51.692;5.196;2024-02-26T09:58:38;24.42;;;12.85;;
84946;SDS011;75241;51.692;5.196;2024-02-26T10:01:04;24.95;;;12.85;;
84946;SDS011;75241;51.692;5.196;2024-02-26T10:03:42;23.55;;;12.68;;
84946;SDS011;75241;51.692;5.196;2024-02-26T10:06:10;24.50;;;12.40;;
84946;SDS011;75241;51.692;5.196;2024-02-26T10:08:35;30.80;;;14.48;;
84946;SDS011;75241;51.692;5.196;2024-02-26T10:11:02;28.35;;;12.32;;
84946;SDS011;75241;51.692;5.196;2024-02-26T10:13:29;26.08;;;13.93;;
84946;SDS011;75241;51.692;5.196;2024-02-26T10:15:54;39.42;;;14.18;;
84946;SDS011;75241;51.692;5.196;2024-02-26T10:18:20;26.08;;;13.25;;
84946;SDS011;75241;51.692;5.196;2024-02-26T10:20:58;25.85;;;13.27;;
84946;SDS011;75241;51.692;5.196;2024-02-26T10:23:25;26.48;;;14.07;;
84946;SDS011;75241;51.692;5.196;2024-02-26T10:25:54;25.85;;;13.43;;
84946;SDS011;75241;51.692;5.196;2024-02-26T10:28:20;24.92;;;12.45;;
84946;SDS011;75241;51.692;5.196;2024-02-26T10:30:46;26.20;;;14.05;;
84946;SDS011;75241;51.692;5.196;2024-02-26T10:33:11;26.23;;;13.65;;
84946;SDS011;75241;51.692;5.196;2024-02-26T10:35:39;28.88;;;12.93;;
84946;SDS011;75241;51.692;5.196;2024-02-26T10:38:06;26.38;;;12.95;;
84946;SDS011;75241;51.692;5.196;2024-02-26T10:40:32;24.98;;;14.00;;
84946;SDS011;75241;51.692;5.196;2024-02-26T10:42:58;24.00;;;12.32;;
84946;SDS011;75241;51.692;5.196;2024-02-26T10:45:23;25.08;;;13.70;;
84946;SDS011;75241;51.692;5.196;2024-02-26T10:47:49;24.60;;;12.23;;
84946;SDS011;75241;51.692;5.196;2024-02-26T10:50:15;25.42;;;11.98;;
84946;SDS011;75241;51.692;5.196;2024-02-26T10:52:42;22.67;;;12.48;;
84946;SDS011;75241;51.692;5.196;2024-02-26T10:55:08;22.85;;;12.68;;
84946;SDS011;75241;51.692;5.196;2024-02-26T10:57:40;21.63;;;12.15;;
84946;SDS011;75241;51.692;5.196;2024-02-26T11:00:08;23.00;;;12.55;;
84946;SDS011;75241;51.692;5.196;2024-02-26T11:02:37;21.95;;;12.68;;
84946;SDS011;75241;51.692;5.196;2024-02-26T11:05:05;22.50;;;12.25;;
84946;SDS011;75241;51.692;5.196;2024-02-26T11:07:32;17.85;;;10.73;;
84946;SDS011;75241;51.692;5.196;2024-02-26T11:09:59;20.63;;;11.68;;
84946;SDS011;75241;51.692;5.196;2024-02-26T11:12:25;25.13;;;12.25;;
84946;SDS011;75241;51.692;5.196;2024-02-26T11:14:56;20.77;;;11.45;;
84946;SDS011;75241;51.692;5.196;2024-02-26T11:19:51;21.27;;;11.35;;
84946;SDS011;75241;51.692;5.196;2024-02-26T11:22:18;22.08;;;12.27;;
84946;SDS011;75241;51.692;5.196;2024-02-26T11:24:46;22.23;;;13.40;;
84946;SDS011;75241;51.692;5.196;2024-02-26T11:27:13;19.98;;;12.38;;
84946;SDS011;75241;51.692;5.196;2024-02-26T11:29:43;19.40;;;11.55;;
84946;SDS011;75241;51.692;5.196;2024-02-26T11:32:12;21.95;;;12.55;;
84946;SDS011;75241;51.692;5.196;2024-02-26T11:34:39;19.25;;;11.80;;
84946;SDS011;75241;51.692;5.196;2024-02-26T11:37:09;17.52;;;11.15;;
84946;SDS011;75241;51.692;5.196;2024-02-26T11:39:41;22.65;;;12.38;;
84946;SDS011;75241;51.692;5.196;2024-02-26T11:42:08;21.25;;;12.02;;
84946;SDS011;75241;51.692;5.196;2024-02-26T11:44:34;20.88;;;12.38;;
84946;SDS011;75241;51.692;5.196;2024-02-26T11:47:13;21.85;;;13.23;;
84946;SDS011;75241;51.692;5.196;2024-02-26T11:49:46;18.25;;;11.80;;
84946;SDS011;75241;51.692;5.196;2024-02-26T11:52:13;21.92;;;12.98;;
84946;SDS011;75241;51.692;5.196;2024-02-26T12:02:47;20.80;;;11.55;;
84946;SDS011;75241;51.692;5.196;2024-02-26T12:05:15;18.65;;;12.27;;
84946;SDS011;75241;51.692;5.196;2024-02-26T12:08:14;23.20;;;12.15;;
84946;SDS011;75241;51.692;5.196;2024-02-26T12:13:11;19.38;;;12.05;;
84946;SDS011;75241;51.692;5.196;2024-02-26T12:15:42;20.55;;;12.23;;
84946;SDS011;75241;51.692;5.196;2024-02-26T12:18:11;22.50;;;12.18;;
84946;SDS011;75241;51.692;5.196;2024-02-26T12:20:42;22.63;;;13.80;;
84946;SDS011;75241;51.692;5.196;2024-02-26T12:25:39;19.40;;;11.68;;
84946;SDS011;75241;51.692;5.196;2024-02-26T12:28:04;19.98;;;11.98;;
84946;SDS011;75241;51.692;5.196;2024-02-26T12:30:30;21.05;;;12.93;;
84946;SDS011;75241;51.692;5.196;2024-02-26T12:32:56;19.70;;;12.90;;
84946;SDS011;75241;51.692;5.196;2024-02-26T12:35:22;19.00;;;12.07;;
84946;SDS011;75241;51.692;5.196;2024-02-26T12:37:48;18.02;;;11.68;;
84946;SDS011;75241;51.692;5.196;2024-02-26T12:40:16;20.40;;;12.77;;
84946;SDS011;75241;51.692;5.196;2024-02-26T12:42:42;18.95;;;11.95;;
84946;SDS011;75241;51.692;5.196;2024-02-26T12:45:11;18.90;;;12.88;;
84946;SDS011;75241;51.692;5.196;2024-02-26T12:47:38;23.90;;;13.15;;
84946;SDS011;75241;51.692;5.196;2024-02-26T12:50:04;23.88;;;13.75;;
84946;SDS011;75241;51.692;5.196;2024-02-26T12:52:34;18.25;;;11.93;;
84946;SDS011;75241;51.692;5.196;2024-02-26T12:55:03;19.02;;;12.50;;
84946;SDS011;75241;51.692;5.196;2024-02-26T12:57:31;18.88;;;11.55;;
84946;SDS011;75241;51.692;5.196;2024-02-26T12:59:58;18.10;;;11.98;;
84946;SDS011;75241;51.692;5.196;2024-02-26T13:02:28;19.35;;;11.85;;
84946;SDS011;75241;51.692;5.196;2024-02-26T13:04:55;21.63;;;11.38;;
84946;SDS011;75241;51.692;5.196;2024-02-26T13:07:22;15.05;;;9.55;;
84946;SDS011;75241;51.692;5.196;2024-02-26T13:09:47;19.13;;;11.38;;
84946;SDS011;75241;51.692;5.196;2024-02-26T13:12:13;15.68;;;10.27;;
84946;SDS011;75241;51.692;5.196;2024-02-26T13:14:39;17.80;;;10.10;;
84946;SDS011;75241;51.692;5.196;2024-02-26T13:17:05;17.20;;;10.15;;
84946;SDS011;75241;51.692;5.196;2024-02-26T13:19:31;16.17;;;10.88;;
84946;SDS011;75241;51.692;5.196;2024-02-26T13:22:03;14.38;;;10.88;;
84946;SDS011;75241;51.692;5.196;2024-02-26T13:24:30;16.05;;;10.10;;
84946;SDS011;75241;51.692;5.196;2024-02-26T13:26:56;14.68;;;10.23;;
84946;SDS011;75241;51.692;5.196;2024-02-26T13:29:21;14.38;;;9.27;;
84946;SDS011;75241;51.692;5.196;2024-02-26T13:31:47;17.40;;;9.43;;
84946;SDS011;75241;51.692;5.196;2024-02-26T13:34:28;16.17;;;8.15;;
84946;SDS011;75241;51.692;5.196;2024-02-26T13:36:55;11.60;;;7.03;;
84946;SDS011;75241;51.692;5.196;2024-02-26T13:39:25;14.20;;;7.78;;
84946;SDS011;75241;51.692;5.196;2024-02-26T13:41:52;10.68;;;6.97;;
84946;SDS011;75241;51.692;5.196;2024-02-26T13:44:19;15.32;;;8.80;;
84946;SDS011;75241;51.692;5.196;2024-02-26T13:46:45;12.55;;;7.10;;
84946;SDS011;75241;51.692;5.196;2024-02-26T13:49:10;13.25;;;7.78;;
84946;SDS011;75241;51.692;5.196;2024-02-26T13:51:36;12.27;;;7.40;;
84946;SDS011;75241;51.692;5.196;2024-02-26T13:54:02;11.90;;;7.03;;
84946;SDS011;75241;51.692;5.196;2024-02-26T13:56:29;11.15;;;7.13;;
84946;SDS011;75241;51.692;5.196;2024-02-26T13:58:54;11.60;;;7.72;;
84946;SDS011;75241;51.692;5.196;2024-02-26T14:01:20;12.18;;;7.45;;
84946;SDS011;75241;51.692;5.196;2024-02-26T14:03:45;14.10;;;7.78;;
84946;SDS011;75241;51.692;5.196;2024-02-26T14:06:10;11.95;;;7.60;;
84946;SDS011;75241;51.692;5.196;2024-02-26T14:08:36;13.43;;;7.47;;
84946;SDS011;75241;51.692;5.196;2024-02-26T14:11:02;10.68;;;6.03;;
84946;SDS011;75241;51.692;5.196;2024-02-26T14:13:27;16.33;;;8.50;;
84946;SDS011;75241;51.692;5.196;2024-02-26T14:15:52;13.10;;;7.70;;
84946;SDS011;75241;51.692;5.196;2024-02-26T14:18:18;11.35;;;6.82;;
84946;SDS011;75241;51.692;5.196;2024-02-26T14:20:43;12.93;;;7.22;;
84946;SDS011;75241;51.692;5.196;2024-02-26T14:23:09;12.85;;;8.05;;
84946;SDS011;75241;51.692;5.196;2024-02-26T14:25:35;14.40;;;8.27;;
84946;SDS011;75241;51.692;5.196;2024-02-26T14:28:01;14.70;;;8.63;;
84946;SDS011;75241;51.692;5.196;2024-02-26T14:30:27;15.18;;;8.18;;
84946;SDS011;75241;51.692;5.196;2024-02-26T14:32:53;11.15;;;7.22;;
84946;SDS011;75241;51.692;5.196;2024-02-26T14:35:18;11.63;;;7.15;;
84946;SDS011;75241;51.692;5.196;2024-02-26T14:37:44;13.38;;;7.18;;
84946;SDS011;75241;51.692;5.196;2024-02-26T14:45:02;15.52;;;8.55;;
84946;SDS011;75241;51.692;5.196;2024-02-26T14:47:29;15.07;;;8.10;;
84946;SDS011;75241;51.692;5.196;2024-02-26T14:49:55;14.63;;;7.32;;
84946;SDS011;75241;51.692;5.196;2024-02-26T14:52:20;15.10;;;8.23;;
84946;SDS011;75241;51.692;5.196;2024-02-26T14:54:46;14.38;;;8.75;;